Willow Valley, Indiana
Current Conditions -  °F | °C
As of 4:35 AM on Saturday 22 Nov 2014 (Local Time) from KDCY Reporting Station
Overcast Overcast  
Wind Chill:   Ceiling: 6000
Heat Index:   Visibility: 10mi
Dew Point:   Wind: 12mph
Humidity: 79%   Direction: 180°S
Pressure: 30.22"   Gusts: NA
Location:  38.6262°N, 86.7615°W
Report Text: KDCY 221035Z AUTO 18010KT 10SM OVC060 04/01 A3022 RMK AO2 T00410008
Loading
Personal Weather Stations






























Interactive Weather Map New forecast layout! Learn more

10-Day Weather Forecast

Advertisements
Track Severe Weather on mobile